Time;durP1;ratioP1;P1;durP2;ratioP2;P2;SDS_P1;SDS_P2;PMS_P1;PMS_P2;Temp;Humidity;BMP_temperature;BMP_pressure;BME280_temperature;BME280_humidity;BME280_pressure;Samples;Min_cycle;Max_cycle;Signal;HPM_P1;HPM_P2
2021/04/14 00:01:08;;;;;;;334.45;89.88;;;2.30;99.90;;;;;;5072833;28;20201;-74
2021/04/14 00:03:35;;;;;;;52.88;14.50;;;2.30;99.90;;;;;;5067595;28;20233;-74
2021/04/14 00:06:02;;;;;;;6.90;3.53;;;2.30;99.90;;;;;;5076592;28;20201;-74
2021/04/14 00:08:30;;;;;;;4.85;4.55;;;2.30;99.90;;;;;;5070767;28;20204;-76
2021/04/14 00:10:57;;;;;;;14.85;4.25;;;2.30;99.90;;;;;;5067854;28;20221;-74
2021/04/14 00:13:26;;;;;;;11.20;3.38;;;2.30;99.90;;;;;;5067854;28;20205;-74
2021/04/14 00:15:56;;;;;;;7.30;4.95;;;2.30;99.90;;;;;;5067636;28;20212;-74
2021/04/14 00:18:23;;;;;;;13.23;4.35;;;2.20;99.90;;;;;;5073828;28;20192;-76
2021/04/14 00:20:51;;;;;;;5.45;4.75;;;2.20;99.90;;;;;;5082727;28;20209;-76
2021/04/14 00:23:19;;;;;;;4.20;3.75;;;2.20;99.90;;;;;;5066805;28;20220;-76
2021/04/14 00:25:47;;;;;;;12.15;4.32;;;2.20;99.90;;;;;;5074443;28;20252;-76
2021/04/14 00:28:16;;;;;;;8.60;4.18;;;2.20;99.90;;;;;;5067657;28;20193;-76
2021/04/14 00:30:42;;;;;;;9.85;4.30;;;2.10;99.90;;;;;;5067802;28;20212;-76
2021/04/14 00:33:10;;;;;;;18.98;3.55;;;2.00;99.90;;;;;;5073992;28;20200;-76
2021/04/14 00:35:36;;;;;;;9.55;3.55;;;2.00;99.90;;;;;;5067665;28;20209;-76
2021/04/14 00:38:03;;;;;;;4.65;3.70;;;2.00;99.90;;;;;;5075457;28;20247;-76
2021/04/14 00:40:32;;;;;;;5.68;3.95;;;2.00;99.90;;;;;;5070482;28;20235;-76
2021/04/14 00:43:03;;;;;;;16.00;3.50;;;2.00;99.90;;;;;;5067003;28;20288;-76
2021/04/14 00:45:30;;;;;;;7.80;3.88;;;2.00;99.90;;;;;;5066601;28;20240;-76
2021/04/14 00:47:56;;;;;;;6.05;3.92;;;1.90;99.90;;;;;;5067025;28;20251;-77
2021/04/14 00:50:27;;;;;;;6.82;3.58;;;1.90;99.90;;;;;;5072648;28;20216;-77
2021/04/14 00:52:54;;;;;;;12.05;4.10;;;1.90;99.90;;;;;;5076703;28;20266;-77
2021/04/14 00:55:23;;;;;;;10.55;3.45;;;1.80;99.90;;;;;;5075034;28;20200;-77
2021/04/14 00:57:50;;;;;;;7.88;3.67;;;1.70;99.90;;;;;;5071962;28;20205;-77
2021/04/14 01:00:20;;;;;;;5.20;3.60;;;1.70;99.90;;;;;;5067577;28;20204;-77
2021/04/14 01:02:46;;;;;;;8.23;3.67;;;1.70;99.90;;;;;;5067547;28;20660;-77
2021/04/14 01:05:14;;;;;;;8.80;3.42;;;1.70;99.90;;;;;;5067386;28;20232;-77
2021/04/14 01:07:41;;;;;;;5.60;4.50;;;1.60;99.90;;;;;;5069974;28;20568;-77
2021/04/14 01:10:09;;;;;;;5.80;3.35;;;1.60;99.90;;;;;;5067077;28;20198;-77
2021/04/14 01:12:35;;;;;;;4.18;3.60;;;1.60;99.90;;;;;;5066769;28;20189;-77
2021/04/14 01:15:03;;;;;;;16.50;3.97;;;1.60;99.90;;;;;;5070967;28;20205;-77
2021/04/14 01:17:29;;;;;;;11.43;3.92;;;1.60;99.90;;;;;;5066711;28;20543;-77
2021/04/14 01:19:56;;;;;;;5.75;3.65;;;1.60;99.90;;;;;;5066619;28;20590;-76
2021/04/14 01:22:23;;;;;;;6.82;4.13;;;1.60;99.90;;;;;;5066762;28;20201;-77
2021/04/14 01:24:49;;;;;;;7.97;3.70;;;1.60;99.90;;;;;;5066974;28;20221;-77
2021/04/14 01:27:16;;;;;;;4.15;3.55;;;1.60;99.90;;;;;;5066185;28;20223;-76
2021/04/14 01:29:42;;;;;;;8.13;4.85;;;1.50;99.90;;;;;;5066110;28;20259;-76
2021/04/14 01:32:09;;;;;;;7.32;4.60;;;1.50;99.90;;;;;;5065234;28;20197;-76
2021/04/14 01:34:35;;;;;;;6.00;3.97;;;1.50;99.90;;;;;;5066240;28;20209;-76
2021/04/14 01:37:02;;;;;;;5.18;3.85;;;1.60;99.90;;;;;;5065946;28;20552;-76
2021/04/14 01:39:29;;;;;;;9.60;4.03;;;1.60;99.90;;;;;;5065862;28;20201;-76
2021/04/14 01:41:56;;;;;;;6.43;4.85;;;1.50;99.90;;;;;;5083908;28;20219;-76
2021/04/14 01:44:22;;;;;;;5.38;3.63;;;1.50;99.90;;;;;;5066019;28;20241;-76
2021/04/14 01:46:49;;;;;;;6.53;3.38;;;1.50;99.90;;;;;;5065620;28;20205;-77
2021/04/14 01:49:15;;;;;;;5.85;4.15;;;1.40;99.90;;;;;;5071943;28;20264;-76
2021/04/14 01:51:42;;;;;;;7.22;4.15;;;1.40;99.90;;;;;;5071341;28;20208;-77
2021/04/14 01:54:10;;;;;;;4.00;3.70;;;1.40;99.90;;;;;;5066409;28;20201;-75
2021/04/14 01:56:39;;;;;;;7.88;4.25;;;1.40;99.90;;;;;;5070503;28;20204;-75
2021/04/14 01:59:05;;;;;;;4.40;3.97;;;1.40;99.90;;;;;;5069117;28;20193;-75
2021/04/14 02:01:32;;;;;;;4.78;4.35;;;1.50;99.90;;;;;;5069501;28;20204;-74
2021/04/14 02:03:59;;;;;;;9.13;3.35;;;1.50;99.90;;;;;;5073787;28;20243;-74
2021/04/14 02:06:26;;;;;;;6.45;4.35;;;1.40;99.90;;;;;;5066085;28;20201;-74
2021/04/14 02:08:52;;;;;;;6.45;4.63;;;1.30;99.90;;;;;;5065911;28;20204;-75
2021/04/14 02:11:19;;;;;;;5.43;3.70;;;1.30;99.90;;;;;;5065450;28;20219;-75
2021/04/14 02:13:47;;;;;;;7.70;5.28;;;1.30;99.90;;;;;;5065721;28;20223;-75
2021/04/14 02:16:17;;;;;;;10.48;4.82;;;1.30;99.90;;;;;;5064934;28;20205;-75
2021/04/14 02:18:44;;;;;;;339.55;82.15;;;1.30;99.90;;;;;;5069049;28;20201;-75
2021/04/14 02:21:11;;;;;;;340.33;84.03;;;1.20;99.90;;;;;;5065658;28;20205;-75
2021/04/14 02:23:41;;;;;;;336.33;84.25;;;1.20;99.90;;;;;;5064778;28;20201;-75
2021/04/14 02:26:10;;;;;;;309.63;71.93;;;1.20;99.90;;;;;;5068924;28;20225;-75
2021/04/14 02:28:37;;;;;;;108.28;26.65;;;1.20;99.90;;;;;;5069234;28;20201;-75
2021/04/14 02:31:05;;;;;;;339.55;82.75;;;1.10;99.90;;;;;;5065023;28;20681;-75
2021/04/14 02:33:31;;;;;;;338.00;81.18;;;1.20;99.90;;;;;;5072665;28;20213;-75
2021/04/14 02:35:58;;;;;;;313.58;72.35;;;1.20;99.90;;;;;;5069147;28;20200;-76
2021/04/14 02:38:25;;;;;;;337.55;83.20;;;1.10;99.90;;;;;;5069239;28;20201;-75
2021/04/14 02:40:52;;;;;;;341.95;85.80;;;1.20;99.90;;;;;;5070152;28;20205;-75
2021/04/14 02:43:21;;;;;;;322.98;78.47;;;1.20;99.90;;;;;;5065202;28;20202;-75
2021/04/14 02:45:48;;;;;;;337.35;77.93;;;1.20;99.90;;;;;;5080847;28;20224;-75
2021/04/14 02:48:15;;;;;;;312.05;69.22;;;1.20;99.90;;;;;;5068519;28;20204;-75
2021/04/14 02:50:42;;;;;;;334.20;75.45;;;1.20;99.90;;;;;;5069214;28;20220;-75
2021/04/14 02:53:09;;;;;;;335.88;77.05;;;1.10;99.90;;;;;;5073959;28;20201;-75
2021/04/14 02:55:37;;;;;;;310.90;66.22;;;1.10;99.90;;;;;;5069126;28;20235;-75
2021/04/14 02:58:04;;;;;;;343.63;78.88;;;1.00;99.90;;;;;;5074111;28;20204;-76
2021/04/14 03:00:30;;;;;;;339.25;75.22;;;1.10;99.90;;;;;;5069351;28;20573;-75
2021/04/14 03:03:00;;;;;;;319.30;69.78;;;1.10;99.90;;;;;;5069718;28;20244;-76
2021/04/14 03:05:31;;;;;;;321.92;70.25;;;1.00;99.90;;;;;;5075478;28;20217;-76
2021/04/14 03:07:57;;;;;;;312.90;68.45;;;1.10;99.90;;;;;;5069382;28;20236;-75
2021/04/14 03:10:25;;;;;;;340.08;79.00;;;1.10;99.90;;;;;;5068788;28;20213;-75
2021/04/14 03:12:52;;;;;;;329.70;73.93;;;1.10;99.90;;;;;;5068733;28;20200;-75
2021/04/14 03:15:22;;;;;;;339.42;76.35;;;1.00;99.90;;;;;;5069990;28;20212;-75
2021/04/14 03:17:48;;;;;;;311.33;65.13;;;1.10;99.90;;;;;;5074249;28;20204;-75
2021/04/14 03:20:15;;;;;;;344.13;81.25;;;1.00;99.90;;;;;;5074052;28;20224;-75
2021/04/14 03:22:43;;;;;;;307.13;66.22;;;1.10;99.90;;;;;;5073740;28;20216;-75
2021/04/14 03:25:11;;;;;;;317.90;71.25;;;1.10;99.90;;;;;;5072144;28;20217;-75
2021/04/14 03:27:38;;;;;;;312.10;69.63;;;1.20;99.90;;;;;;5072079;28;20208;-75
2021/04/14 03:30:06;;;;;;;353.17;78.45;;;1.20;99.90;;;;;;5073774;28;20246;-75
2021/04/14 03:32:33;;;;;;;335.20;76.28;;;1.10;99.90;;;;;;5068957;28;20223;-75
2021/04/14 03:34:59;;;;;;;337.25;78.82;;;1.10;99.90;;;;;;5072929;28;20202;-75
2021/04/14 03:37:26;;;;;;;341.65;81.82;;;1.10;99.90;;;;;;5074087;28;20197;-75
2021/04/14 03:39:53;;;;;;;340.48;83.35;;;1.00;99.90;;;;;;5067247;28;20255;-75
2021/04/14 03:42:20;;;;;;;335.13;78.43;;;1.00;99.90;;;;;;5072188;28;20197;-76
2021/04/14 03:44:51;;;;;;;343.05;83.15;;;1.00;99.90;;;;;;5067948;28;20232;-75
2021/04/14 03:47:18;;;;;;;322.98;74.53;;;1.00;99.90;;;;;;5072960;28;20208;-75
2021/04/14 03:49:44;;;;;;;341.05;80.38;;;1.00;99.90;;;;;;5068893;28;20231;-75
2021/04/14 03:52:11;;;;;;;348.65;85.10;;;1.00;99.90;;;;;;5075714;28;20193;-75
2021/04/14 03:54:37;;;;;;;343.23;79.22;;;0.90;99.90;;;;;;5067661;28;20259;-75
2021/04/14 03:57:05;;;;;;;329.33;75.57;;;0.80;99.90;;;;;;5072355;28;20196;-75
2021/04/14 03:59:31;;;;;;;347.73;79.72;;;0.80;99.90;;;;;;5069782;28;20201;-75
2021/04/14 04:01:58;;;;;;;328.85;77.22;;;0.80;99.90;;;;;;5071632;28;20212;-76
2021/04/14 04:04:24;;;;;;;317.58;68.78;;;0.80;99.90;;;;;;5067986;28;20228;-76
2021/04/14 04:06:51;;;;;;;314.00;69.13;;;0.80;99.90;;;;;;5066247;28;20209;-75
2021/04/14 04:09:17;;;;;;;317.55;71.63;;;0.80;99.90;;;;;;5067731;28;20215;-74
2021/04/14 04:11:44;;;;;;;325.85;73.03;;;0.80;99.90;;;;;;5068263;28;20197;-74
2021/04/14 04:14:12;;;;;;;338.65;78.20;;;0.80;99.90;;;;;;5067871;28;20610;-74
2021/04/14 04:16:38;;;;;;;337.40;74.50;;;0.80;99.90;;;;;;5072928;28;20216;-75
2021/04/14 04:19:05;;;;;;;330.15;71.10;;;0.80;99.90;;;;;;5071090;28;20196;-75
2021/04/14 04:21:31;;;;;;;336.27;74.50;;;0.80;99.90;;;;;;5067510;28;20201;-74
2021/04/14 04:23:58;;;;;;;315.75;68.57;;;0.90;99.90;;;;;;5065901;28;20216;-74
2021/04/14 04:26:24;;;;;;;306.02;67.78;;;0.90;99.90;;;;;;5067907;28;20225;-74
2021/04/14 04:28:51;;;;;;;331.88;73.72;;;0.90;99.90;;;;;;5072134;28;20200;-74
2021/04/14 04:31:18;;;;;;;325.55;76.40;;;0.90;99.90;;;;;;5070220;28;20595;-74
2021/04/14 04:33:44;;;;;;;324.42;75.30;;;0.80;99.90;;;;;;5067484;28;20212;-74
2021/04/14 04:36:11;;;;;;;332.45;80.35;;;0.90;99.90;;;;;;5066801;28;20205;-75
2021/04/14 04:38:37;;;;;;;306.70;69.60;;;0.90;99.90;;;;;;5067030;28;20197;-75
2021/04/14 04:41:04;;;;;;;50.17;18.67;;;1.00;99.90;;;;;;5070911;28;20220;-76
2021/04/14 04:43:31;;;;;;;334.23;81.20;;;1.00;99.90;;;;;;5067339;28;20201;-74
2021/04/14 04:45:58;;;;;;;365.27;133.87;;;1.00;99.90;;;;;;5067205;28;20476;-74
2021/04/14 04:48:25;;;;;;;350.85;90.72;;;1.10;99.90;;;;;;5070955;28;20467;-75
2021/04/14 04:50:52;;;;;;;345.83;89.07;;;1.10;99.90;;;;;;5066266;28;20205;-75
2021/04/14 04:53:21;;;;;;;342.38;85.10;;;1.10;99.90;;;;;;5067109;28;20222;-75
2021/04/14 04:55:49;;;;;;;340.95;84.40;;;1.10;99.90;;;;;;5067052;28;20255;-75
2021/04/14 04:58:16;;;;;;;319.40;69.88;;;1.20;99.90;;;;;;5067355;28;20623;-75
2021/04/14 05:00:43;;;;;;;336.15;79.95;;;1.20;99.90;;;;;;5071725;28;20204;-75
2021/04/14 05:03:11;;;;;;;306.85;67.65;;;1.20;99.90;;;;;;5074794;28;20362;-75
2021/04/14 05:05:40;;;;;;;324.17;75.05;;;1.30;99.90;;;;;;5065887;28;20236;-74
2021/04/14 05:08:07;;;;;;;302.33;68.47;;;1.30;99.90;;;;;;5068412;28;20209;-74
2021/04/14 05:10:34;;;;;;;296.02;66.00;;;1.40;99.90;;;;;;5071591;28;20206;-74
2021/04/14 05:13:01;;;;;;;327.23;79.20;;;1.50;99.90;;;;;;5065899;28;20197;-74
2021/04/14 05:15:30;;;;;;;328.73;82.82;;;1.50;99.90;;;;;;5072969;28;20201;-74
2021/04/14 05:17:58;;;;;;;311.27;76.93;;;1.60;99.90;;;;;;5068645;28;20201;-74
2021/04/14 05:20:25;;;;;;;332.55;86.47;;;1.60;99.90;;;;;;5072315;28;20678;-74
2021/04/14 05:22:52;;;;;;;307.10;73.80;;;1.70;99.90;;;;;;5072658;28;20236;-74
2021/04/14 05:25:21;;;;;;;336.42;89.07;;;1.80;99.90;;;;;;5069995;28;20221;-74
2021/04/14 05:27:49;;;;;;;323.55;86.82;;;1.80;99.90;;;;;;5065908;28;20200;-74
2021/04/14 05:30:16;;;;;;;324.77;87.35;;;1.90;99.90;;;;;;5065703;28;20666;-74
2021/04/14 05:32:43;;;;;;;326.42;89.75;;;1.90;99.90;;;;;;5066076;28;20223;-74
2021/04/14 05:35:11;;;;;;;325.85;84.80;;;2.00;99.90;;;;;;5065516;28;20209;-74
2021/04/14 05:37:37;;;;;;;317.67;83.00;;;2.10;99.90;;;;;;5070791;28;20201;-74
2021/04/14 05:40:06;;;;;;;320.02;85.60;;;2.20;99.90;;;;;;5072201;28;20201;-75
2021/04/14 05:42:38;;;;;;;333.40;88.80;;;2.30;99.90;;;;;;5073193;28;20202;-75
2021/04/14 05:45:07;;;;;;;322.98;93.32;;;2.40;99.90;;;;;;5065946;28;20240;-75
2021/04/14 05:47:34;;;;;;;325.00;95.80;;;2.50;99.90;;;;;;5064959;28;20208;-75
2021/04/14 05:50:00;;;;;;;317.77;96.00;;;2.70;99.90;;;;;;5065187;28;20701;-75
2021/04/14 05:52:27;;;;;;;325.55;96.72;;;2.80;99.90;;;;;;5069905;28;20204;-74
2021/04/14 05:54:53;;;;;;;311.50;90.88;;;2.90;99.90;;;;;;5072558;28;20205;-75
2021/04/14 05:57:21;;;;;;;146.77;45.53;;;3.00;99.90;;;;;;5065866;28;20205;-75
2021/04/14 05:59:47;;;;;;;312.27;91.97;;;3.10;99.90;;;;;;5066130;28;20227;-75
2021/04/14 06:02:14;;;;;;;321.50;91.75;;;3.10;99.90;;;;;;5071272;28;20227;-77
2021/04/14 06:04:41;;;;;;;317.60;97.65;;;3.20;99.90;;;;;;5078308;28;20263;-76
2021/04/14 06:07:07;;;;;;;325.60;101.38;;;3.20;99.90;;;;;;5077499;28;20209;-76
2021/04/14 06:09:34;;;;;;;341.13;115.05;;;3.30;99.90;;;;;;5064386;28;20194;-78
2021/04/14 06:12:00;;;;;;;339.48;106.30;;;3.30;99.90;;;;;;5070736;28;20201;-77
2021/04/14 06:14:28;;;;;;;314.58;100.20;;;3.40;99.90;;;;;;5064551;28;20558;-77
2021/04/14 06:16:54;;;;;;;339.83;101.05;;;3.40;99.90;;;;;;5064982;28;20197;-77
2021/04/14 06:19:21;;;;;;;349.40;107.82;;;3.50;99.90;;;;;;5068057;28;20204;-77
2021/04/14 06:21:47;;;;;;;341.48;101.78;;;3.60;99.90;;;;;;5068801;28;20204;-76
2021/04/14 06:24:15;;;;;;;333.88;105.38;;;3.70;99.90;;;;;;5075124;28;20205;-75
2021/04/14 06:26:45;;;;;;;318.25;103.57;;;3.90;99.90;;;;;;5069219;28;20263;-75
2021/04/14 06:29:11;;;;;;;357.35;119.22;;;4.10;99.90;;;;;;5072416;28;20475;-75
2021/04/14 06:31:41;;;;;;;337.75;104.40;;;4.30;99.90;;;;;;5070635;28;20208;-75
2021/04/14 06:34:14;;;;;;;345.98;109.53;;;4.30;99.90;;;;;;5075446;28;20205;-78
2021/04/14 06:36:41;;;;;;;350.80;114.25;;;4.40;99.90;;;;;;5070073;28;20204;-75
2021/04/14 06:39:09;;;;;;;359.70;117.90;;;4.70;99.90;;;;;;5069552;28;20231;-75
2021/04/14 06:41:59;;;;;;;353.52;110.63;;;5.00;99.90;;;;;;5072089;28;20209;-75
2021/04/14 06:45:02;;;;;;;358.60;112.60;;;5.40;99.90;;;;;;5070079;28;20193;-75
2021/04/14 06:47:51;;;;;;;353.65;116.22;;;5.50;99.90;;;;;;5077593;28;20219;-75
2021/04/14 06:50:21;;;;;;;349.30;109.38;;;5.40;99.90;;;;;;5077023;28;20556;-75
2021/04/14 06:52:52;;;;;;;365.65;125.80;;;5.40;99.90;;;;;;5073042;28;20200;-75
2021/04/14 06:55:25;;;;;;;365.02;121.68;;;5.40;99.90;;;;;;5069220;28;20205;-75
2021/04/14 06:57:55;;;;;;;317.60;130.75;;;5.50;99.90;;;;;;5068886;28;20201;-75
2021/04/14 07:00:28;;;;;;;49.83;21.52;;;5.50;99.90;;;;;;5078209;28;20193;-75
2021/04/14 07:03:02;;;;;;;374.38;120.45;;;5.60;99.90;;;;;;5069363;28;20233;-75
2021/04/14 07:05:33;;;;;;;372.13;119.10;;;5.70;99.90;;;;;;5070612;28;20225;-75
2021/04/14 07:08:03;;;;;;;72.18;25.30;;;5.80;99.90;;;;;;5070651;28;20663;-75
2021/04/14 07:10:33;;;;;;;95.55;49.35;;;5.90;99.90;;;;;;5068930;28;20197;-75
2021/04/14 07:13:03;;;;;;;383.85;136.32;;;6.00;99.90;;;;;;5068843;28;20212;-75
2021/04/14 07:15:30;;;;;;;384.98;141.25;;;6.10;99.90;;;;;;5069250;28;20205;-75
2021/04/14 07:18:13;;;;;;;366.50;128.45;;;6.20;99.90;;;;;;5074498;28;20208;-75
2021/04/14 07:20:44;;;;;;;378.77;130.40;;;6.30;99.90;;;;;;5071096;28;20216;-75
2021/04/14 07:23:22;;;;;;;39.58;14.45;;;6.30;99.90;;;;;;5077459;28;20271;-76
2021/04/14 07:25:53;;;;;;;390.83;147.40;;;6.40;99.90;;;;;;5069017;28;20570;-76
2021/04/14 07:28:47;;;;;;;367.70;133.73;;;6.50;99.90;;;;;;5070260;28;20204;-75
2021/04/14 07:31:20;;;;;;;363.98;130.27;;;6.60;99.90;;;;;;5070395;28;20214;-75
2021/04/14 07:34:07;;;;;;;390.20;149.82;;;6.80;99.90;;;;;;5074655;28;20227;-75
2021/04/14 07:36:42;;;;;;;391.85;161.45;;;6.90;99.90;;;;;;5073880;28;20203;-75
2021/04/14 07:39:16;;;;;;;400.02;164.68;;;7.00;99.90;;;;;;5069523;28;20250;-75
2021/04/14 07:41:52;;;;;;;373.58;141.30;;;7.00;99.90;;;;;;5068662;28;20527;-75
2021/04/14 07:44:27;;;;;;;390.77;162.70;;;7.00;99.90;;;;;;5072235;28;20236;-76
2021/04/14 07:46:54;;;;;;;80.45;35.72;;;7.00;99.90;;;;;;5073765;28;20204;-76
2021/04/14 07:49:23;;;;;;;64.65;24.42;;;7.00;99.90;;;;;;5067767;28;20205;-75
2021/04/14 07:51:50;;;;;;;404.83;161.18;;;6.90;99.90;;;;;;5074068;28;20205;-75
2021/04/14 07:54:18;;;;;;;406.30;149.98;;;6.60;99.90;;;;;;5076148;28;20193;-75
2021/04/14 07:56:49;;;;;;;404.67;147.32;;;6.50;99.90;;;;;;5069153;28;20201;-76
2021/04/14 07:59:24;;;;;;;411.33;152.70;;;6.30;99.90;;;;;;5073302;28;20213;-75
2021/04/14 08:01:55;;;;;;;389.13;135.52;;;6.40;99.90;;;;;;5067512;28;20196;-75
2021/04/14 08:04:29;;;;;;;397.17;147.30;;;6.40;99.90;;;;;;5073036;28;20231;-75
2021/04/14 08:07:08;;;;;;;399.15;149.57;;;6.50;99.90;;;;;;5072208;28;20200;-76
2021/04/14 08:09:35;;;;;;;407.88;184.13;;;6.80;99.90;;;;;;5068269;28;20280;-76
2021/04/14 08:12:07;;;;;;;410.25;178.80;;;7.20;99.90;;;;;;5070506;28;20205;-75
2021/04/14 08:14:35;;;;;;;47.53;32.58;;;7.50;99.90;;;;;;5070183;28;20207;-74
2021/04/14 08:17:12;;;;;;;453.40;404.48;;;7.90;99.90;;;;;;5068813;28;20463;-75
2021/04/14 08:19:41;;;;;;;423.60;286.73;;;8.40;99.90;;;;;;5067371;28;20205;-75
2021/04/14 08:22:20;;;;;;;409.70;254.63;;;8.90;99.90;;;;;;5067865;28;20204;-76
2021/04/14 08:24:52;;;;;;;387.27;255.25;;;9.50;99.90;;;;;;5067298;28;20235;-75
2021/04/14 08:27:22;;;;;;;407.15;288.48;;;10.00;99.90;;;;;;5066451;28;20260;-75
2021/04/14 08:29:50;;;;;;;51.92;24.05;;;10.50;99.90;;;;;;5067419;28;20205;-76
2021/04/14 08:32:17;;;;;;;70.78;49.75;;;11.00;99.90;;;;;;5067618;28;20197;-76
2021/04/14 08:34:56;;;;;;;417.33;348.00;;;11.50;99.90;;;;;;5070902;28;20223;-76
2021/04/14 08:37:25;;;;;;;415.50;359.45;;;12.00;99.90;;;;;;5070390;28;20332;-76
2021/04/14 08:39:54;;;;;;;13.82;9.15;;;12.30;99.90;;;;;;5067386;28;20616;-76
2021/04/14 08:42:32;;;;;;;439.08;392.42;;;12.70;99.90;;;;;;5067696;28;20202;-77
2021/04/14 08:45:17;;;;;;;442.92;397.15;;;13.10;99.90;;;;;;5073401;28;20244;-77
2021/04/14 08:47:51;;;;;;;474.00;427.40;;;13.40;99.90;;;;;;5070755;28;20214;-76
2021/04/14 08:50:25;;;;;;;474.80;427.55;;;13.70;99.40;;;;;;5066925;28;20204;-76
2021/04/14 08:52:55;;;;;;;515.00;467.70;;;14.00;98.00;;;;;;5069781;28;20219;-77
2021/04/14 08:55:25;;;;;;;495.55;450.05;;;14.20;97.20;;;;;;5073277;28;20208;-75
2021/04/14 08:57:52;;;;;;;8.93;6.45;;;14.50;97.60;;;;;;5066074;28;20748;-75
2021/04/14 09:00:21;;;;;;;9.27;6.80;;;14.90;95.90;;;;;;5068929;28;20204;-75
2021/04/14 09:02:51;;;;;;;9.38;6.50;;;15.00;94.50;;;;;;5072384;28;20232;-77
2021/04/14 09:05:22;;;;;;;78.78;71.22;;;14.70;93.20;;;;;;5068482;28;20230;-78
2021/04/14 09:07:50;;;;;;;79.43;68.18;;;14.50;94.00;;;;;;5075140;28;20203;-78
2021/04/14 09:10:40;;;;;;;16.17;9.40;;;14.40;93.80;;;;;;5066583;28;20208;-77
2021/04/14 09:13:09;;;;;;;23.20;13.50;;;13.90;94.60;;;;;;5066386;28;20205;-77
2021/04/14 09:15:47;;;;;;;16.60;8.45;;;13.60;93.70;;;;;;5068875;28;20210;-76
2021/04/14 09:18:26;;;;;;;144.30;130.27;;;13.20;93.90;;;;;;5066174;28;20203;-77
2021/04/14 09:21:06;;;;;;;12.63;7.07;;;13.00;94.30;;;;;;5065645;28;20208;-77
2021/04/14 09:23:34;;;;;;;393.52;352.48;;;12.70;94.70;;;;;;5072968;28;20200;-77
2021/04/14 09:26:02;;;;;;;14.10;8.25;;;12.40;93.70;;;;;;5071221;28;20577;-78
2021/04/14 09:28:31;;;;;;;16.67;8.88;;;12.20;93.60;;;;;;5067437;28;20484;-78
2021/04/14 09:31:08;;;;;;;18.23;7.53;;;12.00;93.70;;;;;;5073950;28;20201;-78
2021/04/14 09:33:40;;;;;;;12.75;7.95;;;11.80;94.60;;;;;;5073436;28;20209;-79
2021/04/14 09:36:11;;;;;;;14.80;7.70;;;11.70;94.80;;;;;;5068130;28;20233;-79
2021/04/14 09:38:45;;;;;;;12.85;8.20;;;11.60;95.10;;;;;;5073337;28;20286;-78
2021/04/14 09:41:16;;;;;;;62.25;40.55;;;11.50;95.20;;;;;;5074369;28;20216;-79
2021/04/14 09:43:44;;;;;;;20.13;8.30;;;11.40;95.00;;;;;;5072968;28;20207;-78
2021/04/14 09:46:12;;;;;;;72.82;47.47;;;11.30;95.30;;;;;;5068578;28;20225;-79
2021/04/14 09:48:42;;;;;;;19.98;9.02;;;11.20;95.90;;;;;;5072481;28;20256;-79
2021/04/14 09:51:23;;;;;;;10.88;7.22;;;11.10;96.20;;;;;;5068500;28;20201;-79
2021/04/14 09:53:53;;;;;;;16.70;8.05;;;11.10;96.20;;;;;;5071739;28;20209;-79
2021/04/14 09:56:23;;;;;;;12.00;7.72;;;11.00;95.80;;;;;;5070059;28;20208;-78
2021/04/14 09:58:54;;;;;;;9.02;6.93;;;10.70;96.50;;;;;;5071603;28;20209;-76
2021/04/14 10:08:18;;;;;;;77.80;47.22;;;10.70;97.30;;;;;;5106619;28;20200;-77
2021/04/14 10:10:47;;;;;;;11.05;7.45;;;11.30;96.30;;;;;;5098616;28;20203;-75
2021/04/14 10:13:17;;;;;;;11.40;8.25;;;12.50;96.00;;;;;;5104404;28;20205;-76
2021/04/14 10:15:45;;;;;;;8.45;7.57;;;13.50;92.90;;;;;;5100839;28;20721;-76
2021/04/14 10:18:19;;;;;;;457.33;419.10;;;14.30;90.60;;;;;;5099474;28;20225;-76
2021/04/14 10:20:46;;;;;;;469.02;425.95;;;14.60;90.20;;;;;;5093320;28;20214;-77
2021/04/14 10:23:16;;;;;;;15.90;8.65;;;14.50;90.40;;;;;;5095874;28;20227;-76
2021/04/14 10:25:44;;;;;;;11.82;7.63;;;14.10;89.10;;;;;;5102187;28;20204;-77
2021/04/14 10:28:20;;;;;;;12.82;7.40;;;13.70;87.90;;;;;;5114010;28;20229;-78
2021/04/14 10:30:50;;;;;;;11.77;7.70;;;13.30;87.70;;;;;;5104674;28;20230;-77
2021/04/14 10:33:20;;;;;;;12.30;8.38;;;12.60;87.30;;;;;;5117221;28;20236;-77
2021/04/14 10:35:48;;;;;;;11.13;7.38;;;12.10;88.70;;;;;;5104404;28;20225;-77
2021/04/14 10:38:15;;;;;;;13.45;7.80;;;11.60;90.40;;;;;;5101993;28;20201;-76
2021/04/14 10:40:44;;;;;;;10.52;6.65;;;11.30;90.10;;;;;;5105003;28;20677;-76
2021/04/14 10:43:13;;;;;;;13.23;8.50;;;11.10;91.20;;;;;;5103850;28;20252;-76
2021/04/14 10:45:54;;;;;;;11.70;7.47;;;11.10;91.40;;;;;;5105943;28;20211;-76
2021/04/14 10:48:22;;;;;;;11.63;7.32;;;11.70;91.50;;;;;;5108611;28;20222;-76
2021/04/14 10:50:49;;;;;;;16.65;8.38;;;12.60;91.80;;;;;;5109024;28;20258;-76
2021/04/14 10:53:16;;;;;;;10.13;7.75;;;13.70;89.50;;;;;;5104730;28;20202;-75
2021/04/14 10:55:48;;;;;;;8.68;7.20;;;14.60;89.70;;;;;;5108767;28;20265;-75
2021/04/14 10:58:20;;;;;;;12.63;6.57;;;15.10;85.60;;;;;;5099391;28;20200;-76
2021/04/14 11:00:49;;;;;;;10.60;6.97;;;15.50;80.00;;;;;;5105187;28;21977;-80
2021/04/14 11:03:20;;;;;;;14.52;7.80;;;15.30;79.40;;;;;;5113383;28;20262;-79
2021/04/14 11:06:05;;;;;;;14.57;7.40;;;15.40;82.20;;;;;;5120787;28;20199;-76
2021/04/14 11:08:34;;;;;;;13.38;6.82;;;15.30;81.70;;;;;;5094809;28;20287;-76
2021/04/14 11:11:02;;;;;;;10.90;7.82;;;15.30;79.80;;;;;;5083269;28;20255;-76
2021/04/14 11:13:31;;;;;;;10.65;7.75;;;15.30;78.60;;;;;;5091342;28;20587;-76
2021/04/14 11:15:58;;;;;;;16.05;8.93;;;15.00;78.40;;;;;;5075468;28;20222;-76
2021/04/14 11:18:36;;;;;;;9.95;7.75;;;14.80;75.80;;;;;;5071171;28;20382;-76
2021/04/14 11:21:09;;;;;;;10.77;7.40;;;14.60;78.10;;;;;;5074255;28;20212;-76
2021/04/14 11:23:38;;;;;;;8.73;6.95;;;14.60;76.70;;;;;;5074775;28;20308;-79
2021/04/14 11:26:21;;;;;;;9.45;7.65;;;14.50;75.80;;;;;;5082780;28;20707;-79
2021/04/14 11:28:58;;;;;;;9.35;6.18;;;14.10;75.80;;;;;;5068487;28;20239;-80
2021/04/14 11:31:32;;;;;;;8.13;7.32;;;13.90;72.20;;;;;;5074456;28;20215;-80
2021/04/14 11:36:49;;;;;;;10.35;7.18;;;13.70;73.30;;;;;;5080066;28;20205;-80
2021/04/14 11:42:06;;;;;;;12.30;7.97;;;13.50;74.00;;;;;;5087479;28;20269;-80
2021/04/14 11:47:26;;;;;;;15.00;8.13;;;12.60;86.70;;;;;;5070895;28;20231;-80
2021/04/14 11:52:37;;;;;;;17.27;9.00;;;11.50;95.50;;;;;;5078895;28;20200;-78
2021/04/14 11:55:18;;;;;;;14.55;9.38;;;10.90;99.80;;;;;;5079378;28;20662;-79
2021/04/14 11:57:46;;;;;;;14.68;9.38;;;10.40;99.90;;;;;;5077028;28;20205;-79
2021/04/14 12:00:26;;;;;;;407.33;238.48;;;10.00;99.90;;;;;;5075476;28;20232;-78
2021/04/14 12:02:56;;;;;;;403.85;209.20;;;9.60;99.90;;;;;;5072027;28;20236;-79
2021/04/14 12:05:26;;;;;;;308.92;192.25;;;9.50;99.90;;;;;;5079896;28;20209;-78
2021/04/14 12:07:54;;;;;;;23.02;20.63;;;9.30;99.90;;;;;;5069728;28;20208;-78
2021/04/14 12:10:25;;;;;;;68.00;36.63;;;9.10;99.90;;;;;;5078599;28;20193;-79
2021/04/14 12:13:07;;;;;;;16.63;10.38;;;9.00;99.90;;;;;;5072355;28;20201;-77
2021/04/14 12:15:34;;;;;;;17.95;11.95;;;8.80;99.90;;;;;;5066236;28;20218;-77
2021/04/14 12:18:00;;;;;;;59.63;21.80;;;8.70;99.90;;;;;;5061485;28;20209;-78
2021/04/14 12:20:27;;;;;;;17.25;11.88;;;8.60;99.90;;;;;;5060298;28;20204;-75
2021/04/14 12:22:53;;;;;;;16.77;12.00;;;8.50;99.90;;;;;;5069890;28;20236;-75
2021/04/14 12:25:21;;;;;;;21.67;11.77;;;8.60;99.90;;;;;;5068552;28;20219;-76
2021/04/14 12:27:47;;;;;;;44.13;20.50;;;8.90;99.90;;;;;;5075859;28;20207;-76
2021/04/14 12:30:17;;;;;;;15.93;10.02;;;9.10;99.90;;;;;;5071338;28;20214;-76
2021/04/14 12:32:43;;;;;;;399.52;241.80;;;9.30;99.90;;;;;;5078124;28;20652;-76
2021/04/14 12:35:11;;;;;;;370.40;207.30;;;9.60;99.90;;;;;;5071284;28;21072;-76
2021/04/14 12:37:37;;;;;;;206.00;132.68;;;9.90;99.90;;;;;;5065336;28;20201;-76
2021/04/14 12:40:06;;;;;;;15.13;12.38;;;10.00;99.90;;;;;;5067577;28;20205;-77
2021/04/14 12:42:32;;;;;;;14.85;10.68;;;10.10;99.90;;;;;;5063591;28;20205;-76
2021/04/14 12:45:03;;;;;;;12.90;8.88;;;10.20;99.90;;;;;;5072911;28;20236;-76
2021/04/14 12:47:30;;;;;;;15.32;9.93;;;10.00;99.90;;;;;;5067658;28;20206;-75
2021/04/14 12:49:57;;;;;;;14.25;9.63;;;10.00;99.90;;;;;;5062092;28;20201;-76
2021/04/14 12:52:30;;;;;;;15.63;10.75;;;10.10;99.90;;;;;;5066908;28;20208;-76
2021/04/14 12:54:58;;;;;;;13.40;9.75;;;10.20;99.90;;;;;;5068868;28;20217;-74
2021/04/14 12:57:26;;;;;;;17.58;10.60;;;10.30;99.90;;;;;;5065893;28;20212;-75
2021/04/14 12:59:57;;;;;;;12.60;9.00;;;10.50;99.90;;;;;;5062657;28;20210;-75
2021/04/14 13:02:25;;;;;;;24.38;12.85;;;10.40;99.90;;;;;;5062459;28;20208;-74